Newtown, Indiana
Current Conditions -  °F | °C
As of 1:54 AM on Monday 22 Dec 2014 (Local Time) from KLAF Reporting Station
Clear Clear  
Wind Chill: 19°   Ceiling: Unl
Heat Index: 27°   Visibility: 7mi
Dew Point: 24°   Wind: 8mph
Humidity: 89%   Direction: 110°ESE
Pressure: 30.02"   Gusts: NA
Location:  40.2°N, 87.15°W
Report Text: KLAF 220654Z AUTO 11007KT 7SM CLR M03/M04 A3002 RMK AO2 SLP172 T10281044 TSNO
Loading
Personal Weather Stations






























Interactive Weather Map New forecast layout! Learn more

10-Day Weather Forecast

Advertisements
Track Severe Weather on mobile